Have a Safe July 4th! 

Flight Track Log - Related Links

Times and Time Zones

All times are in EDT time to prevent confusion due to time zone crossing. See the SWA1802 flight status page for this flight to view local times or setup timezone preferences in your user account.

Time Position Orientation Groundspeed Altitude Reporting Facility
EDT Latitude Longitude Course Direction KTS MPH feet Rate Location/Type
Sat 06:50:52 AM 42.7653 -73.8061 359° North 163 188 1,300  Level Boston Center
Sat 06:51:10 AM 42.7778 -73.8064 359° North 165 190 2,000 2,297 Climbing Boston Center
Sat 06:53:00 AM 42.8539 -73.8958 319° Northwest 208 239 6,200 2,647 Climbing Boston Center
Sat 06:54:00 AM 42.8589 -73.9808 275° West 218 251 9,500 2,600 Climbing Boston Center
Sat 06:55:00 AM 42.8511 -74.0856 264° West 238 274 11,400 2,150 Climbing Boston Center
Sat 06:56:00 AM 42.8453 -74.1931 266° West 291 335 13,800 2,700 Climbing Boston Center
Sat 06:57:00 AM 42.7836 -74.2706 223° Southwest 286 329 16,800 2,750 Climbing Boston Center
Sat 06:58:00 AM 42.6950 -74.2197 157° South 259 298 19,300 2,400 Climbing Boston Center
Sat 06:59:00 AM 42.6086 -74.1439 147° Southeast 315 362 21,600 1,850 Climbing Boston Center
Sat 07:00:00 AM 42.5344 -74.0714 144° Southeast 336 387 23,000 1,600 Climbing Boston Center
Sat 07:01:00 AM 42.4419 -73.9875 146° Southeast 375 432 24,800 1,800 Climbing Boston Center
Sat 07:02:00 AM 42.3492 -73.9067 147° Southeast 389 448 26,600 1,600 Climbing Boston Center
Sat 07:03:00 AM 42.2586 -73.8286 147° Southeast 395 455 28,000 700 Climbing Boston Center
Sat 07:04:00 AM 42.1608 -73.8153 174° South 368 423 28,000  Level Boston Center
Sat 07:05:00 AM 42.0664 -73.8497 195° South 341 392 28,000 750 Level Boston Center
Sat 07:06:48 AM 41.9086 -73.9233 199° South 337 388 30,100 1,337 Climbing New York Center
Sat 07:07:46 AM 41.8222 -73.9608 198° South 337 388 31,700 1,462 Climbing New York Center
Sat 07:08:47 AM 41.7381 -74.0014 200° South 331 381 33,000 1,190 Climbing New York Center
Sat 07:09:47 AM 41.6514 -74.0414 199° South 331 381 34,100 1,059 Climbing New York Center
Sat 07:10:46 AM 41.5692 -74.0817 200° South 331 381 35,100 942 Climbing New York Center
Sat 07:11:48 AM 41.4869 -74.1192 199° South 326 375 36,000 446 Climbing New York Center
Sat 07:12:47 AM 41.4044 -74.1594 200° South 326 375 36,000  Level New York Center
Sat 07:13:47 AM 41.3181 -74.1992 199° South 326 375 36,000  Level New York Center
Sat 07:14:46 AM 41.2294 -74.2361 197° South 332 382 36,000  Level New York Center
Sat 07:15:47 AM 41.1469 -74.2758 200° South 332 382 36,000  Level New York Center
Sat 07:16:48 AM 41.0606 -74.3153 199° South 332 382 36,000  Level New York Center
Sat 07:17:45 AM 40.9758 -74.3550 199° South 332 382 36,000  Level New York Center
Sat 07:18:46 AM 40.8914 -74.3944 199° South 332 382 36,000  Level New York Center
Sat 07:19:46 AM 40.8069 -74.4339 199° South 332 382 36,000  Level New York Center
Sat 07:20:47 AM 40.7222 -74.4731 199° South 332 382 36,000  Level New York Center
Sat 07:22:39 AM 40.5506 -74.5514 199° South 327 376 36,000  Level Washington Center
Sat 07:23:39 AM 40.4656 -74.5908 199° South 327 376 36,000  Level Washington Center
Sat 07:24:39 AM 40.3783 -74.6303 199° South 327 376 36,000  Level Washington Center
Sat 07:25:39 AM 40.2892 -74.6697 199° South 327 376 36,000  Level Washington Center
Sat 07:26:39 AM 40.2019 -74.7086 199° South 327 376 36,000  Level Washington Center
Sat 07:27:39 AM 40.1147 -74.7506 200° South 327 376 36,000  Level Washington Center
Sat 07:28:39 AM 40.0294 -74.7867 198° South 327 376 36,000  Level Washington Center
Sat 07:29:39 AM 39.9422 -74.8283 200° South 327 376 36,000  Level Washington Center
Sat 07:30:39 AM 39.8572 -74.8672 199° South 327 376 36,000  Level Washington Center
Sat 07:31:39 AM 39.7700 -74.9031 198° South 327 376 36,000  Level Washington Center
Sat 07:32:39 AM 39.6825 -74.9444 200° South 327 376 36,000  Level Washington Center
Sat 07:33:39 AM 39.6058 -74.9800 200° South 332 382 36,000  Level Washington Center
Sat 07:34:39 AM 39.5206 -75.0292 204° Southwest 332 382 36,000  Level Washington Center
Sat 07:35:39 AM 39.4394 -75.0811 206° Southwest 332 382 36,000  Level Washington Center
Sat 07:36:39 AM 39.3564 -75.1300 204° Southwest 332 382 36,000  Level Washington Center
Sat 07:37:39 AM 39.2731 -75.1786 204° Southwest 337 388 36,000  Level Washington Center
Sat 07:38:39 AM 39.1878 -75.2275 204° Southwest 337 388 36,000  Level Washington Center
Sat 07:39:39 AM 39.1047 -75.2786 206° Southwest 337 388 36,000  Level Washington Center
Sat 07:40:39 AM 39.0214 -75.3244 203° Southwest 337 388 36,000  Level Washington Center
Sat 07:41:39 AM 38.9381 -75.3756 206° Southwest 337 388 36,000  Level Washington Center
Sat 07:42:39 AM 38.8547 -75.4236 204° Southwest 337 388 36,000  Level Washington Center
Sat 07:43:39 AM 38.7694 -75.4692 203° Southwest 337 388 36,000  Level Washington Center
Sat 07:44:39 AM 38.6861 -75.5200 205° Southwest 337 388 36,000  Level Washington Center
Sat 07:45:39 AM 38.6028 -75.5706 205° Southwest 337 388 36,000  Level Washington Center
Sat 07:46:39 AM 38.5172 -75.6156 202° Southwest 337 388 36,000  Level Washington Center
Sat 07:47:39 AM 38.4317 -75.6658 205° Southwest 337 388 36,000  Level Washington Center
Sat 07:48:39 AM 38.3461 -75.7133 204° Southwest 337 388 36,000  Level Washington Center
Sat 07:49:39 AM 38.2522 -75.7664 204° Southwest 337 388 36,000  Level Washington Center
Sat 07:50:39 AM 38.1667 -75.8161 205° Southwest 337 388 36,000  Level Washington Center
Sat 07:51:39 AM 38.0831 -75.8633 204° Southwest 337 388 36,000  Level Washington Center
Sat 07:52:39 AM 37.9975 -75.9106 204° Southwest 337 388 36,000  Level Washington Center
Sat 07:53:39 AM 37.9119 -75.9603 205° Southwest 337 388 36,000  Level Washington Center
Sat 07:54:39 AM 37.8242 -76.0097 204° Southwest 337 388 36,000  Level Washington Center
Sat 07:55:39 AM 37.7383 -76.0619 206° Southwest 337 388 36,000  Level Washington Center
Sat 07:56:39 AM 37.6486 -76.1139 205° Southwest 342 394 36,000  Level Washington Center
Sat 07:57:39 AM 37.5817 -76.1525 205° Southwest 342 394 36,000  Level Washington Center
Sat 07:58:39 AM 37.4814 -76.1989 200° South 342 394 36,000  Level Washington Center
Sat 07:59:39 AM 37.3933 -76.2506 205° Southwest 342 394 36,000  Level Washington Center
Sat 08:00:39 AM 37.3033 -76.2994 203° Southwest 347 399 36,000  Level Washington Center
Sat 08:01:39 AM 37.2156 -76.3508 205° Southwest 347 399 36,000  Level Washington Center
Sat 08:02:39 AM 37.1256 -76.3994 203° Southwest 347 399 36,000  Level Washington Center
Sat 08:03:39 AM 37.0314 -76.4375 198° South 358 412 36,000  Level Washington Center
Sat 08:04:39 AM 36.9372 -76.4781 199° South 358 412 36,000  Level Washington Center
Sat 08:05:39 AM 36.8453 -76.5158 198° South 358 412 36,000  Level Washington Center
Sat 08:06:39 AM 36.7508 -76.5536 198° South 358 412 36,000  Level Washington Center
Sat 08:07:39 AM 36.6506 -76.6017 201° Southwest 358 412 36,000  Level Washington Center
Sat 08:08:39 AM 36.5647 -76.6342 197° South 358 412 36,000  Level Washington Center
Sat 08:09:39 AM 36.4683 -76.6767 200° South 364 419 36,000  Level Washington Center
Sat 08:10:39 AM 36.3719 -76.7142 197° South 364 419 36,000  Level Washington Center
Sat 08:11:39 AM 36.2778 -76.7539 199° South 364 419 36,000  Level Washington Center
Sat 08:12:39 AM 36.1814 -76.7911 197° South 364 419 36,000  Level Washington Center
Sat 08:13:40 AM 36.0828 -76.8308 198° South 369 425 36,000  Level Washington Center
Sat 08:14:39 AM 35.9864 -76.8703 198° South 369 425 36,000  Level Washington Center
Sat 08:15:39 AM 35.8881 -76.9097 198° South 369 425 36,000  Level Washington Center
Sat 08:16:39 AM 35.7936 -76.9492 199° South 369 425 36,000  Level Washington Center
Sat 08:17:39 AM 35.6953 -76.9886 198° South 369 425 36,000  Level Washington Center
Sat 08:18:39 AM 35.5967 -77.0275 198° South 369 425 36,000  Level Washington Center
Sat 08:19:39 AM 35.5000 -77.0692 199° South 369 425 36,000  Level Washington Center
Sat 08:20:39 AM 35.3911 -77.1106 197° South 369 425 36,000  Level Washington Center
Sat 08:21:39 AM 35.2925 -77.1519 199° South 369 425 36,000  Level Washington Center
Sat 08:22:39 AM 35.1939 -77.1908 198° South 369 425 36,000  Level Washington Center
Sat 08:23:39 AM 35.0975 -77.2319 199° South 369 425 36,000  Level Washington Center
Sat 08:24:39 AM 34.9967 -77.2706 197° South 375 432 36,000  Level Washington Center
Sat 08:25:39 AM 34.8961 -77.3089 197° South 375 432 36,000  Level Washington Center
Sat 08:26:39 AM 34.7972 -77.3525 200° South 375 432 36,000 200 Level Washington Center
Sat 08:27:39 AM 34.6967 -77.3906 197° South 380 437 36,400 800 Climbing Washington Center
Sat 08:28:39 AM 34.5981 -77.4289 198° South 380 437 37,600 800 Climbing Washington Center
Sat 08:29:39 AM 34.4994 -77.4669 198° South 380 437 38,000 200 Climbing Washington Center
Sat 08:30:39 AM 34.4006 -77.5075 199° South 380 437 38,000  Level Washington Center
Sat 08:32:19 AM 34.2433 -77.5675 198° South 365 420 38,000  Level Jacksonville Center
Sat 08:33:19 AM 34.1428 -77.6064 198° South 377 434 38,000  Level Jacksonville Center
Sat 08:34:19 AM 34.0400 -77.6425 196° South 377 434 38,000  Level Jacksonville Center
Sat 08:35:19 AM 33.9417 -77.6836 199° South 377 434 38,000  Level Jacksonville Center
Sat 08:36:19 AM 33.8411 -77.7244 199° South 377 434 38,000  Level Jacksonville Center
Sat 08:37:19 AM 33.7383 -77.7631 197° South 377 434 38,000  Level Jacksonville Center
Sat 08:38:19 AM 33.6253 -77.8069 198° South 382 440 38,000  Level Jacksonville Center
Sat 08:39:19 AM 33.5225 -77.8453 197° South 387 445 38,000  Level Jacksonville Center
Sat 08:40:19 AM 33.4197 -77.8833 197° South 387 445 38,000 -50 Level Jacksonville Center
Sat 08:41:19 AM 33.3172 -77.9264 199° South 387 445 37,900 -50 Descending Jacksonville Center
Sat 08:42:19 AM 33.2122 -77.9647 197° South 392 451 37,900 50 Level Jacksonville Center
Sat 08:43:19 AM 33.1094 -78.0050 198° South 397 457 38,000 50 Climbing Jacksonville Center
Sat 08:44:19 AM 33.0044 -78.0431 197° South 397 457 38,000 -50 Level Jacksonville Center
Sat 08:45:19 AM 32.9017 -78.0831 198° South 397 457 37,900  Descending Jacksonville Center
Sat 08:46:19 AM 32.7989 -78.1208 197° South 392 451 38,000 50 Climbing Jacksonville Center
Sat 08:47:19 AM 32.6958 -78.1558 196° South 392 451 38,000  Level Jacksonville Center
Sat 08:48:19 AM 32.5928 -78.1956 198° South 392 451 38,000  Level Jacksonville Center
Sat 08:49:19 AM 32.4900 -78.2381 199° South 397 457 38,000  Level Jacksonville Center
Sat 08:50:19 AM 32.3850 -78.2753 197° South 397 457 38,000 -50 Level Jacksonville Center
Sat 08:51:19 AM 32.2781 -78.3175 198° South 392 451 37,900 -50 Descending Jacksonville Center
Sat 08:52:19 AM 32.1731 -78.3572 198° South 399 459 37,900 50 Level Jacksonville Center
Sat 08:53:19 AM 32.0658 -78.3967 197° South 399 459 38,000 50 Climbing Jacksonville Center
Sat 08:54:19 AM 31.9650 -78.4336 197° South 394 453 38,000  Level Jacksonville Center
Sat 08:55:19 AM 31.8558 -78.4756 198° South 400 460 38,000 -50 Level Jacksonville Center
Sat 08:56:19 AM 31.7528 -78.5147 198° South 400 460 37,900  Descending Jacksonville Center
Sat 08:57:19 AM 31.6456 -78.5539 197° South 395 455 38,000 50 Climbing Jacksonville Center
Sat 08:58:19 AM 31.5403 -78.5903 196° South 395 455 38,000  Level Jacksonville Center
Sat 08:59:19 AM 31.4392 -78.6267 197° South 395 455 38,000  Level Jacksonville Center
Sat 09:00:19 AM 31.3300 -78.6683 198° South 395 455 38,000 -50 Level Jacksonville Center
Sat 09:01:19 AM 31.2250 -78.7094 199° South 400 460 37,900  Descending Jacksonville Center
Sat 09:02:19 AM 31.1217 -78.7406 194° South 400 460 38,000 50 Climbing Jacksonville Center
Sat 09:03:19 AM 31.0144 -78.7817 198° South 399 459 38,000  Level Jacksonville Center
Sat 09:04:19 AM 30.9072 -78.8228 198° South 399 459 38,000  Level Jacksonville Center
Sat 09:05:19 AM 30.8019 -78.8611 197° South 399 459 38,000 -50 Level Jacksonville Center
Sat 09:06:19 AM 30.6861 -78.8997 196° South 404 465 37,900 -57 Descending Jacksonville Center
Sat 09:07:04 AM 30.6239 -78.9256 200° South 409 471 37,900 57 Level Miami Center
Sat 09:08:04 AM 30.5108 -78.9642 196° South 409 471 38,000 50 Climbing Miami Center
Sat 09:09:04 AM 30.4058 -79.0031 198° South 402 463 38,000  Level Miami Center
Sat 09:10:04 AM 30.3011 -79.0467 200° South 402 463 38,000  Level Miami Center
Sat 09:11:04 AM 30.1939 -79.0947 201° Southwest 415 478 38,000  Level Miami Center
Sat 09:12:04 AM 30.0828 -79.1406 200° South 414 476 38,000  Level Miami Center
Sat 09:13:04 AM 29.9733 -79.1981 204° Southwest 414 476 38,000  Level Miami Center
Sat 09:14:04 AM 29.8664 -79.2436 200° South 409 471 38,000  Level Miami Center
Sat 09:15:04 AM 29.7572 -79.2911 201° Southwest 415 478 38,000  Level Miami Center
Sat 09:16:04 AM 29.6542 -79.3439 204° Southwest 415 478 38,000  Level Miami Center
Sat 09:17:04 AM 29.5428 -79.3842 197° South 415 478 38,000  Level Miami Center
Sat 09:18:04 AM 29.4294 -79.4244 197° South 415 478 38,000  Level Miami Center
Sat 09:19:04 AM 29.3203 -79.4719 201° Southwest 415 478 38,000 -2,500 Level Miami Center
Sat 09:20:04 AM 29.2128 -79.5192 201° Southwest 415 478 33,000 -3,700 Descending Miami Center
Sat 09:21:04 AM 29.1056 -79.5689 202° Southwest 420 483 30,600 2,500 Descending Miami Center
Sat 09:22:04 AM 29.0617 -79.6867 247° West 380 437 38,000 -2,200 Climbing Miami Center
Sat 09:23:04 AM 29.0239 -79.7947 248° West 366 421 26,200 -7,000 Descending Miami Center
Sat 09:24:04 AM 28.9944 -79.9125 254° West 377 434 24,000 -2,150 Descending Miami Center
Sat 09:25:04 AM 28.9567 -80.0183 248° West 377 434 21,900 -2,100 Descending Miami Center
Sat 09:27:44 AM 28.8667 -80.3000 250° West 351 404 16,300 -2,131 Descending Orlando TRACON
Sat 09:28:38 AM 28.8333 -80.4000 249° West 347 399 14,300 -1,200 Descending Orlando TRACON
Sat 09:29:44 AM 28.8167 -80.5000 259° West 324 373 13,900 -682 Descending Orlando TRACON
Sat 09:30:50 AM 28.8000 -80.6167 261° West 328 377 12,800 -1,048 Descending Orlando TRACON
Sat 09:31:50 AM 28.7833 -80.7167 259° West 325 374 11,700 -1,050 Descending Orlando TRACON
Sat 09:32:50 AM 28.7500 -80.8000 245° Southwest 294 338 10,700 -850 Descending Orlando TRACON
Sat 09:33:50 AM 28.7000 -80.8833 236° Southwest 277 319 10,000 -800 Descending Orlando TRACON
Sat 09:34:50 AM 28.6667 -80.9500 240° Southwest 268 308 9,100 -500 Descending Orlando TRACON
Sat 09:35:50 AM 28.6333 -81.0167 240° Southwest 258 297 9,000 -50 Descending Orlando TRACON
Sat 09:36:50 AM 28.5667 -81.0667 213° Southwest 263 303 9,000 -300 Level Orlando TRACON
Sat 09:37:50 AM 28.5167 -81.1167 221° Southwest 244 281 8,400 -1,150 Descending Orlando TRACON
Sat 09:38:50 AM 28.4500 -81.1500 204° Southwest 232 267 6,700 -1,537 Descending Orlando TRACON
Sat 09:39:51 AM 28.4000 -81.1833 210° Southwest 232 267 5,300 -1,304 Descending Orlando TRACON
Sat 09:40:45 AM 28.3500 -81.1833 180° South 214 246 4,200 -1,381 Descending Orlando TRACON
Sat 09:41:44 AM 28.3000 -81.2167 210° Southwest 207 238 2,700 -1,525 Descending Orlando TRACON

Login

Don't have an account? Register now (free) for customized features, flight alerts, and more!